Terminal Aerodrome Forecast
Issued by NWS

Home | Current Version | Previous Version | Text Only | Print | Product List | Glossary On
Versions: 1 2 3 4 5 6 7 8 9 10 11 12 13 14 15
643
FTUS46 KLOX 072359
TAFOXR
TAF
KOXR 072359Z 0800/0824 06020G28KT P6SM SKC
     FM080100 06015G25KT P6SM SKC
     FM080500 07017G27KT P6SM SKC WS020/04045KT
     FM081600 08020G30KT P6SM SKC
     FM082000 07015G25KT P6SM SKC=

USA.gov is the U.S. government's official web portal to all federal, state and local government web resources and services.